North Carrollton, Mississippi
Current Conditions -  °F | °C
As of 3:53 PM on Sunday 23 Nov 2014 (Local Time) from KGWO Reporting Station
Overcast Overcast  
Wind Chill: 63°   Ceiling: 1100
Heat Index: 63°   Visibility: 10mi
Dew Point: 60°   Wind: 13mph
Humidity: 90%   Direction: 220°SW
Pressure: 29.47"   Gusts: 21mph
Location:  33.52°N, 89.92°W
Report Text: KGWO 232153Z AUTO 22011G18KT 10SM OVC011 17/16 A2947 RMK AO2 PK WND 23027/2056 RAE37 SLP978 P0003 T01720156 TSNO
Loading
Personal Weather Stations






























Interactive Weather Map New forecast layout! Learn more

10-Day Weather Forecast

Advertisements
Track Severe Weather on mobile